sensor_id;sensor_type;location;lat;lon;timestamp;P1;durP1;ratioP1;P2;durP2;ratioP2
81374;SDS011;70828;51.158;4.998;2023-07-13T00:01:43;6.03;;;1.38;;
81374;SDS011;70828;51.158;4.998;2023-07-13T00:04:11;3.05;;;0.98;;
81374;SDS011;70828;51.158;4.998;2023-07-13T00:06:38;4.70;;;1.00;;
81374;SDS011;70828;51.158;4.998;2023-07-13T00:09:06;3.85;;;1.00;;
81374;SDS011;70828;51.158;4.998;2023-07-13T00:11:33;4.07;;;0.80;;
81374;SDS011;70828;51.158;4.998;2023-07-13T00:13:59;6.03;;;1.10;;
81374;SDS011;70828;51.158;4.998;2023-07-13T00:16:26;4.93;;;1.17;;
81374;SDS011;70828;51.158;4.998;2023-07-13T00:18:53;4.78;;;0.98;;
81374;SDS011;70828;51.158;4.998;2023-07-13T00:21:19;5.32;;;1.10;;
81374;SDS011;70828;51.158;4.998;2023-07-13T00:23:46;5.43;;;1.70;;
81374;SDS011;70828;51.158;4.998;2023-07-13T00:26:14;3.42;;;1.10;;
81374;SDS011;70828;51.158;4.998;2023-07-13T00:28:40;5.63;;;1.40;;
81374;SDS011;70828;51.158;4.998;2023-07-13T00:31:07;3.28;;;0.90;;
81374;SDS011;70828;51.158;4.998;2023-07-13T00:33:34;3.65;;;1.10;;
81374;SDS011;70828;51.158;4.998;2023-07-13T00:36:02;4.35;;;1.63;;
81374;SDS011;70828;51.158;4.998;2023-07-13T00:38:29;12.43;;;2.72;;
81374;SDS011;70828;51.158;4.998;2023-07-13T00:40:56;3.13;;;1.27;;
81374;SDS011;70828;51.158;4.998;2023-07-13T00:43:25;4.03;;;1.02;;
81374;SDS011;70828;51.158;4.998;2023-07-13T00:46:09;6.03;;;1.05;;
81374;SDS011;70828;51.158;4.998;2023-07-13T00:48:38;6.35;;;1.48;;
81374;SDS011;70828;51.158;4.998;2023-07-13T00:51:05;10.63;;;2.00;;
81374;SDS011;70828;51.158;4.998;2023-07-13T00:53:31;2.72;;;0.95;;
81374;SDS011;70828;51.158;4.998;2023-07-13T00:55:59;12.10;;;1.67;;
81374;SDS011;70828;51.158;4.998;2023-07-13T00:58:27;6.82;;;1.13;;
81374;SDS011;70828;51.158;4.998;2023-07-13T01:00:55;4.22;;;1.77;;
81374;SDS011;70828;51.158;4.998;2023-07-13T01:03:21;9.02;;;1.40;;
81374;SDS011;70828;51.158;4.998;2023-07-13T01:05:48;4.38;;;1.30;;
81374;SDS011;70828;51.158;4.998;2023-07-13T01:08:16;4.47;;;1.00;;
81374;SDS011;70828;51.158;4.998;2023-07-13T01:10:50;5.93;;;1.70;;
81374;SDS011;70828;51.158;4.998;2023-07-13T01:13:17;5.35;;;1.10;;
81374;SDS011;70828;51.158;4.998;2023-07-13T01:15:46;2.30;;;1.00;;
81374;SDS011;70828;51.158;4.998;2023-07-13T01:18:14;3.53;;;1.25;;
81374;SDS011;70828;51.158;4.998;2023-07-13T01:20:49;4.72;;;1.63;;
81374;SDS011;70828;51.158;4.998;2023-07-13T01:23:17;3.25;;;1.10;;
81374;SDS011;70828;51.158;4.998;2023-07-13T01:25:44;9.57;;;1.83;;
81374;SDS011;70828;51.158;4.998;2023-07-13T01:28:11;5.70;;;1.15;;
81374;SDS011;70828;51.158;4.998;2023-07-13T01:30:38;4.50;;;1.27;;
81374;SDS011;70828;51.158;4.998;2023-07-13T01:33:06;6.47;;;1.60;;
81374;SDS011;70828;51.158;4.998;2023-07-13T01:35:32;4.30;;;1.30;;
81374;SDS011;70828;51.158;4.998;2023-07-13T01:38:00;4.57;;;1.27;;
81374;SDS011;70828;51.158;4.998;2023-07-13T01:40:28;4.13;;;1.20;;
81374;SDS011;70828;51.158;4.998;2023-07-13T01:42:55;3.35;;;1.23;;
81374;SDS011;70828;51.158;4.998;2023-07-13T01:45:22;4.60;;;1.15;;
81374;SDS011;70828;51.158;4.998;2023-07-13T01:47:48;5.97;;;1.42;;
81374;SDS011;70828;51.158;4.998;2023-07-13T01:50:15;5.10;;;1.50;;
81374;SDS011;70828;51.158;4.998;2023-07-13T01:52:41;5.03;;;1.10;;
81374;SDS011;70828;51.158;4.998;2023-07-13T01:55:09;4.45;;;1.15;;
81374;SDS011;70828;51.158;4.998;2023-07-13T01:57:36;5.93;;;1.27;;
81374;SDS011;70828;51.158;4.998;2023-07-13T02:00:03;4.68;;;1.95;;
81374;SDS011;70828;51.158;4.998;2023-07-13T02:02:31;5.55;;;1.20;;
81374;SDS011;70828;51.158;4.998;2023-07-13T02:04:58;3.42;;;1.20;;
81374;SDS011;70828;51.158;4.998;2023-07-13T02:07:24;6.00;;;1.20;;
81374;SDS011;70828;51.158;4.998;2023-07-13T02:09:51;5.97;;;1.30;;
81374;SDS011;70828;51.158;4.998;2023-07-13T02:12:19;5.03;;;1.48;;
81374;SDS011;70828;51.158;4.998;2023-07-13T02:14:45;7.03;;;1.50;;
81374;SDS011;70828;51.158;4.998;2023-07-13T02:17:12;5.55;;;1.20;;
81374;SDS011;70828;51.158;4.998;2023-07-13T02:19:39;3.65;;;1.00;;
81374;SDS011;70828;51.158;4.998;2023-07-13T02:22:06;8.57;;;1.70;;
81374;SDS011;70828;51.158;4.998;2023-07-13T02:24:33;4.65;;;1.10;;
81374;SDS011;70828;51.158;4.998;2023-07-13T02:26:59;7.55;;;1.45;;
81374;SDS011;70828;51.158;4.998;2023-07-13T02:29:27;13.18;;;1.45;;
81374;SDS011;70828;51.158;4.998;2023-07-13T02:31:54;5.45;;;1.55;;
81374;SDS011;70828;51.158;4.998;2023-07-13T02:34:21;3.03;;;1.13;;
81374;SDS011;70828;51.158;4.998;2023-07-13T02:36:47;4.68;;;2.50;;
81374;SDS011;70828;51.158;4.998;2023-07-13T02:39:14;4.15;;;1.30;;
81374;SDS011;70828;51.158;4.998;2023-07-13T02:41:40;6.22;;;1.13;;
81374;SDS011;70828;51.158;4.998;2023-07-13T02:44:07;5.50;;;1.20;;
81374;SDS011;70828;51.158;4.998;2023-07-13T02:46:36;5.68;;;1.30;;
81374;SDS011;70828;51.158;4.998;2023-07-13T02:49:03;6.63;;;1.95;;
81374;SDS011;70828;51.158;4.998;2023-07-13T02:51:30;7.18;;;1.20;;
81374;SDS011;70828;51.158;4.998;2023-07-13T02:53:58;5.10;;;1.10;;
81374;SDS011;70828;51.158;4.998;2023-07-13T02:56:26;3.58;;;1.30;;
81374;SDS011;70828;51.158;4.998;2023-07-13T02:58:54;10.25;;;1.80;;
81374;SDS011;70828;51.158;4.998;2023-07-13T03:01:21;6.90;;;1.63;;
81374;SDS011;70828;51.158;4.998;2023-07-13T03:03:49;11.85;;;2.22;;
81374;SDS011;70828;51.158;4.998;2023-07-13T03:06:16;6.97;;;1.73;;
81374;SDS011;70828;51.158;4.998;2023-07-13T03:08:44;5.38;;;1.60;;
81374;SDS011;70828;51.158;4.998;2023-07-13T03:11:11;6.90;;;1.88;;
81374;SDS011;70828;51.158;4.998;2023-07-13T03:13:40;7.45;;;1.70;;
81374;SDS011;70828;51.158;4.998;2023-07-13T03:16:07;9.15;;;1.58;;
81374;SDS011;70828;51.158;4.998;2023-07-13T03:18:35;5.82;;;1.75;;
81374;SDS011;70828;51.158;4.998;2023-07-13T03:21:04;6.90;;;1.70;;
81374;SDS011;70828;51.158;4.998;2023-07-13T03:23:31;9.55;;;1.63;;
81374;SDS011;70828;51.158;4.998;2023-07-13T03:26:01;7.03;;;1.73;;
81374;SDS011;70828;51.158;4.998;2023-07-13T03:28:29;8.80;;;1.60;;
81374;SDS011;70828;51.158;4.998;2023-07-13T03:30:59;15.73;;;3.42;;
81374;SDS011;70828;51.158;4.998;2023-07-13T03:33:26;8.15;;;1.60;;
81374;SDS011;70828;51.158;4.998;2023-07-13T03:35:53;5.00;;;1.60;;
81374;SDS011;70828;51.158;4.998;2023-07-13T03:38:21;7.47;;;1.67;;
81374;SDS011;70828;51.158;4.998;2023-07-13T03:40:47;4.97;;;2.22;;
81374;SDS011;70828;51.158;4.998;2023-07-13T03:43:14;9.80;;;1.85;;
81374;SDS011;70828;51.158;4.998;2023-07-13T03:45:41;10.45;;;1.60;;
81374;SDS011;70828;51.158;4.998;2023-07-13T03:48:07;5.53;;;1.50;;
81374;SDS011;70828;51.158;4.998;2023-07-13T03:50:34;8.98;;;1.77;;
81374;SDS011;70828;51.158;4.998;2023-07-13T03:53:00;7.65;;;1.70;;
81374;SDS011;70828;51.158;4.998;2023-07-13T03:55:28;4.53;;;1.60;;
81374;SDS011;70828;51.158;4.998;2023-07-13T03:57:57;6.55;;;2.28;;
81374;SDS011;70828;51.158;4.998;2023-07-13T04:00:25;9.95;;;1.90;;
81374;SDS011;70828;51.158;4.998;2023-07-13T04:02:52;8.75;;;2.10;;
81374;SDS011;70828;51.158;4.998;2023-07-13T04:05:19;10.60;;;2.00;;
81374;SDS011;70828;51.158;4.998;2023-07-13T04:07:45;7.13;;;2.65;;
81374;SDS011;70828;51.158;4.998;2023-07-13T04:10:12;7.65;;;1.80;;
81374;SDS011;70828;51.158;4.998;2023-07-13T04:12:40;4.38;;;1.40;;
81374;SDS011;70828;51.158;4.998;2023-07-13T04:15:07;8.82;;;1.77;;
81374;SDS011;70828;51.158;4.998;2023-07-13T04:17:34;5.63;;;2.05;;
81374;SDS011;70828;51.158;4.998;2023-07-13T04:20:01;10.35;;;1.88;;
81374;SDS011;70828;51.158;4.998;2023-07-13T04:22:29;9.05;;;1.70;;
81374;SDS011;70828;51.158;4.998;2023-07-13T04:24:56;7.30;;;1.42;;
81374;SDS011;70828;51.158;4.998;2023-07-13T04:27:22;7.78;;;1.80;;
81374;SDS011;70828;51.158;4.998;2023-07-13T04:29:50;7.25;;;1.83;;
81374;SDS011;70828;51.158;4.998;2023-07-13T04:32:17;6.25;;;2.28;;
81374;SDS011;70828;51.158;4.998;2023-07-13T04:34:43;6.68;;;1.95;;
81374;SDS011;70828;51.158;4.998;2023-07-13T04:37:10;9.27;;;2.17;;
81374;SDS011;70828;51.158;4.998;2023-07-13T04:39:37;3.03;;;1.40;;
81374;SDS011;70828;51.158;4.998;2023-07-13T04:42:04;8.63;;;1.63;;
81374;SDS011;70828;51.158;4.998;2023-07-13T04:44:31;10.35;;;2.45;;
81374;SDS011;70828;51.158;4.998;2023-07-13T04:46:59;13.50;;;3.80;;
81374;SDS011;70828;51.158;4.998;2023-07-13T04:49:25;9.35;;;2.75;;
81374;SDS011;70828;51.158;4.998;2023-07-13T04:51:52;6.20;;;1.90;;
81374;SDS011;70828;51.158;4.998;2023-07-13T04:54:20;13.40;;;2.85;;
81374;SDS011;70828;51.158;4.998;2023-07-13T04:56:46;8.80;;;2.00;;
81374;SDS011;70828;51.158;4.998;2023-07-13T04:59:13;8.90;;;2.55;;
81374;SDS011;70828;51.158;4.998;2023-07-13T05:01:40;5.65;;;2.00;;
81374;SDS011;70828;51.158;4.998;2023-07-13T05:04:08;8.57;;;1.85;;
81374;SDS011;70828;51.158;4.998;2023-07-13T05:06:34;7.97;;;2.10;;
81374;SDS011;70828;51.158;4.998;2023-07-13T05:09:01;7.70;;;2.00;;
81374;SDS011;70828;51.158;4.998;2023-07-13T05:11:28;8.63;;;2.10;;
81374;SDS011;70828;51.158;4.998;2023-07-13T05:13:55;8.43;;;2.55;;
81374;SDS011;70828;51.158;4.998;2023-07-13T05:16:21;10.25;;;4.40;;
81374;SDS011;70828;51.158;4.998;2023-07-13T05:18:48;9.13;;;2.22;;
81374;SDS011;70828;51.158;4.998;2023-07-13T05:21:16;9.57;;;2.58;;
81374;SDS011;70828;51.158;4.998;2023-07-13T05:23:42;7.03;;;2.10;;
81374;SDS011;70828;51.158;4.998;2023-07-13T05:26:09;15.57;;;2.80;;
81374;SDS011;70828;51.158;4.998;2023-07-13T05:28:36;5.03;;;2.13;;
81374;SDS011;70828;51.158;4.998;2023-07-13T05:31:04;11.35;;;1.77;;
81374;SDS011;70828;51.158;4.998;2023-07-13T05:33:31;7.55;;;2.25;;
81374;SDS011;70828;51.158;4.998;2023-07-13T05:35:57;14.60;;;4.70;;
81374;SDS011;70828;51.158;4.998;2023-07-13T05:38:26;7.97;;;2.40;;
81374;SDS011;70828;51.158;4.998;2023-07-13T05:40:54;5.78;;;1.85;;
81374;SDS011;70828;51.158;4.998;2023-07-13T05:43:21;12.48;;;2.25;;
81374;SDS011;70828;51.158;4.998;2023-07-13T05:45:48;5.30;;;1.73;;
81374;SDS011;70828;51.158;4.998;2023-07-13T05:48:15;8.27;;;2.13;;
81374;SDS011;70828;51.158;4.998;2023-07-13T05:50:42;7.45;;;2.15;;
81374;SDS011;70828;51.158;4.998;2023-07-13T05:53:08;13.27;;;2.30;;
81374;SDS011;70828;51.158;4.998;2023-07-13T05:55:36;6.80;;;2.35;;
81374;SDS011;70828;51.158;4.998;2023-07-13T05:58:07;11.55;;;2.00;;
81374;SDS011;70828;51.158;4.998;2023-07-13T06:00:33;10.82;;;2.20;;
81374;SDS011;70828;51.158;4.998;2023-07-13T06:03:00;8.32;;;1.65;;
81374;SDS011;70828;51.158;4.998;2023-07-13T06:05:27;8.88;;;2.17;;
81374;SDS011;70828;51.158;4.998;2023-07-13T06:07:53;11.85;;;2.05;;
81374;SDS011;70828;51.158;4.998;2023-07-13T06:10:20;12.07;;;2.13;;
81374;SDS011;70828;51.158;4.998;2023-07-13T06:12:48;7.13;;;1.73;;
81374;SDS011;70828;51.158;4.998;2023-07-13T06:15:15;15.05;;;2.35;;
81374;SDS011;70828;51.158;4.998;2023-07-13T06:17:41;9.00;;;2.00;;
81374;SDS011;70828;51.158;4.998;2023-07-13T06:20:09;8.20;;;2.28;;
81374;SDS011;70828;51.158;4.998;2023-07-13T06:22:36;10.95;;;2.50;;
81374;SDS011;70828;51.158;4.998;2023-07-13T06:25:02;13.13;;;2.35;;
81374;SDS011;70828;51.158;4.998;2023-07-13T06:27:29;15.27;;;2.55;;
81374;SDS011;70828;51.158;4.998;2023-07-13T06:29:57;7.55;;;1.77;;
81374;SDS011;70828;51.158;4.998;2023-07-13T06:32:24;10.30;;;2.67;;
81374;SDS011;70828;51.158;4.998;2023-07-13T06:34:51;9.90;;;2.88;;
81374;SDS011;70828;51.158;4.998;2023-07-13T06:37:17;12.75;;;2.72;;
81374;SDS011;70828;51.158;4.998;2023-07-13T06:39:44;11.15;;;3.05;;
81374;SDS011;70828;51.158;4.998;2023-07-13T06:42:11;12.35;;;3.03;;
81374;SDS011;70828;51.158;4.998;2023-07-13T06:44:37;9.48;;;3.40;;
81374;SDS011;70828;51.158;4.998;2023-07-13T06:47:06;8.15;;;2.55;;
81374;SDS011;70828;51.158;4.998;2023-07-13T06:49:32;12.73;;;2.97;;
81374;SDS011;70828;51.158;4.998;2023-07-13T06:51:59;8.90;;;2.47;;
81374;SDS011;70828;51.158;4.998;2023-07-13T06:54:25;14.60;;;3.28;;
81374;SDS011;70828;51.158;4.998;2023-07-13T06:56:52;8.18;;;2.80;;
81374;SDS011;70828;51.158;4.998;2023-07-13T06:59:19;18.08;;;3.25;;
81374;SDS011;70828;51.158;4.998;2023-07-13T07:01:46;10.73;;;2.88;;
81374;SDS011;70828;51.158;4.998;2023-07-13T07:04:13;6.97;;;3.30;;
81374;SDS011;70828;51.158;4.998;2023-07-13T07:06:40;6.63;;;2.05;;
81374;SDS011;70828;51.158;4.998;2023-07-13T07:09:07;13.82;;;2.50;;
81374;SDS011;70828;51.158;4.998;2023-07-13T07:11:34;11.88;;;2.85;;
81374;SDS011;70828;51.158;4.998;2023-07-13T07:14:00;12.02;;;2.97;;
81374;SDS011;70828;51.158;4.998;2023-07-13T07:16:27;6.97;;;2.65;;
81374;SDS011;70828;51.158;4.998;2023-07-13T07:18:53;8.60;;;2.33;;
81374;SDS011;70828;51.158;4.998;2023-07-13T07:21:21;11.02;;;2.90;;
81374;SDS011;70828;51.158;4.998;2023-07-13T07:23:48;7.53;;;2.70;;
81374;SDS011;70828;51.158;4.998;2023-07-13T07:26:15;11.48;;;2.53;;
81374;SDS011;70828;51.158;4.998;2023-07-13T07:28:41;10.77;;;3.30;;
81374;SDS011;70828;51.158;4.998;2023-07-13T07:31:08;8.10;;;2.40;;
81374;SDS011;70828;51.158;4.998;2023-07-13T07:33:35;11.60;;;3.60;;
81374;SDS011;70828;51.158;4.998;2023-07-13T07:36:01;12.35;;;3.45;;
81374;SDS011;70828;51.158;4.998;2023-07-13T07:38:29;11.20;;;3.53;;
81374;SDS011;70828;51.158;4.998;2023-07-13T07:40:56;13.43;;;4.13;;
81374;SDS011;70828;51.158;4.998;2023-07-13T07:43:23;9.35;;;2.92;;
81374;SDS011;70828;51.158;4.998;2023-07-13T07:45:49;10.27;;;2.97;;
81374;SDS011;70828;51.158;4.998;2023-07-13T07:48:16;9.27;;;2.63;;
81374;SDS011;70828;51.158;4.998;2023-07-13T07:50:42;10.13;;;2.55;;
81374;SDS011;70828;51.158;4.998;2023-07-13T07:53:10;20.65;;;2.80;;
81374;SDS011;70828;51.158;4.998;2023-07-13T07:55:39;8.45;;;2.30;;
81374;SDS011;70828;51.158;4.998;2023-07-13T07:58:06;4.38;;;1.95;;
81374;SDS011;70828;51.158;4.998;2023-07-13T08:00:33;8.52;;;2.92;;
81374;SDS011;70828;51.158;4.998;2023-07-13T08:03:00;10.93;;;3.38;;
81374;SDS011;70828;51.158;4.998;2023-07-13T08:05:27;9.70;;;2.70;;
81374;SDS011;70828;51.158;4.998;2023-07-13T08:07:54;12.98;;;3.08;;
81374;SDS011;70828;51.158;4.998;2023-07-13T08:10:21;15.32;;;3.67;;
81374;SDS011;70828;51.158;4.998;2023-07-13T08:12:49;11.77;;;2.50;;
81374;SDS011;70828;51.158;4.998;2023-07-13T08:15:16;12.43;;;3.08;;
81374;SDS011;70828;51.158;4.998;2023-07-13T08:17:45;7.90;;;2.83;;
81374;SDS011;70828;51.158;4.998;2023-07-13T08:20:12;7.80;;;2.28;;
81374;SDS011;70828;51.158;4.998;2023-07-13T08:22:39;6.85;;;2.60;;
81374;SDS011;70828;51.158;4.998;2023-07-13T08:25:06;10.85;;;2.25;;
81374;SDS011;70828;51.158;4.998;2023-07-13T08:27:33;10.80;;;2.50;;
81374;SDS011;70828;51.158;4.998;2023-07-13T08:30:01;5.43;;;2.20;;
81374;SDS011;70828;51.158;4.998;2023-07-13T08:32:28;9.55;;;2.72;;
81374;SDS011;70828;51.158;4.998;2023-07-13T08:34:55;14.05;;;2.15;;
81374;SDS011;70828;51.158;4.998;2023-07-13T08:37:21;11.50;;;2.38;;
81374;SDS011;70828;51.158;4.998;2023-07-13T08:39:48;7.47;;;2.15;;
81374;SDS011;70828;51.158;4.998;2023-07-13T08:42:18;6.72;;;2.30;;
81374;SDS011;70828;51.158;4.998;2023-07-13T08:44:54;7.15;;;1.88;;
81374;SDS011;70828;51.158;4.998;2023-07-13T08:47:24;7.93;;;1.90;;
81374;SDS011;70828;51.158;4.998;2023-07-13T08:49:51;9.35;;;2.35;;
81374;SDS011;70828;51.158;4.998;2023-07-13T08:52:21;7.32;;;2.08;;
81374;SDS011;70828;51.158;4.998;2023-07-13T08:54:54;8.20;;;2.25;;
81374;SDS011;70828;51.158;4.998;2023-07-13T08:57:25;7.18;;;1.95;;
81374;SDS011;70828;51.158;4.998;2023-07-13T08:59:55;10.23;;;2.17;;
81374;SDS011;70828;51.158;4.998;2023-07-13T09:02:26;6.28;;;1.83;;
81374;SDS011;70828;51.158;4.998;2023-07-13T09:04:56;6.05;;;2.45;;
81374;SDS011;70828;51.158;4.998;2023-07-13T09:07:30;5.95;;;1.75;;
81374;SDS011;70828;51.158;4.998;2023-07-13T09:12:35;6.45;;;1.60;;
81374;SDS011;70828;51.158;4.998;2023-07-13T09:15:14;5.38;;;1.83;;
81374;SDS011;70828;51.158;4.998;2023-07-13T09:17:49;7.15;;;1.90;;
81374;SDS011;70828;51.158;4.998;2023-07-13T09:20:21;3.65;;;1.38;;
81374;SDS011;70828;51.158;4.998;2023-07-13T09:22:52;6.97;;;1.77;;
81374;SDS011;70828;51.158;4.998;2023-07-13T09:25:22;7.28;;;1.45;;
81374;SDS011;70828;51.158;4.998;2023-07-13T09:27:51;5.60;;;1.50;;
81374;SDS011;70828;51.158;4.998;2023-07-13T09:30:24;7.90;;;1.75;;
81374;SDS011;70828;51.158;4.998;2023-07-13T09:32:54;6.25;;;1.42;;
81374;SDS011;70828;51.158;4.998;2023-07-13T09:35:25;6.60;;;1.50;;
81374;SDS011;70828;51.158;4.998;2023-07-13T09:37:57;5.05;;;1.48;;
81374;SDS011;70828;51.158;4.998;2023-07-13T09:40:26;4.28;;;1.60;;
81374;SDS011;70828;51.158;4.998;2023-07-13T09:42:56;4.18;;;1.50;;
81374;SDS011;70828;51.158;4.998;2023-07-13T09:45:27;4.50;;;1.42;;
81374;SDS011;70828;51.158;4.998;2023-07-13T09:48:03;7.63;;;1.80;;
81374;SDS011;70828;51.158;4.998;2023-07-13T09:50:30;6.20;;;1.30;;
81374;SDS011;70828;51.158;4.998;2023-07-13T09:52:57;4.45;;;1.27;;
81374;SDS011;70828;51.158;4.998;2023-07-13T09:55:26;11.95;;;1.95;;
81374;SDS011;70828;51.158;4.998;2023-07-13T09:57:55;6.13;;;1.30;;
81374;SDS011;70828;51.158;4.998;2023-07-13T10:00:22;9.68;;;1.67;;
81374;SDS011;70828;51.158;4.998;2023-07-13T10:03:02;8.30;;;2.75;;
81374;SDS011;70828;51.158;4.998;2023-07-13T10:05:37;4.88;;;1.83;;
81374;SDS011;70828;51.158;4.998;2023-07-13T10:08:05;7.07;;;1.48;;
81374;SDS011;70828;51.158;4.998;2023-07-13T10:10:32;7.00;;;1.85;;
81374;SDS011;70828;51.158;4.998;2023-07-13T10:13:00;5.50;;;1.98;;
81374;SDS011;70828;51.158;4.998;2023-07-13T10:15:29;11.02;;;2.08;;
81374;SDS011;70828;51.158;4.998;2023-07-13T10:17:56;5.63;;;1.50;;
81374;SDS011;70828;51.158;4.998;2023-07-13T10:20:25;6.50;;;1.33;;
81374;SDS011;70828;51.158;4.998;2023-07-13T10:22:53;6.53;;;1.60;;
81374;SDS011;70828;51.158;4.998;2023-07-13T10:25:23;4.05;;;1.42;;
81374;SDS011;70828;51.158;4.998;2023-07-13T10:27:51;7.43;;;2.10;;
81374;SDS011;70828;51.158;4.998;2023-07-13T10:30:21;6.72;;;1.90;;
81374;SDS011;70828;51.158;4.998;2023-07-13T10:32:50;5.55;;;1.27;;
81374;SDS011;70828;51.158;4.998;2023-07-13T10:35:19;3.72;;;1.70;;
81374;SDS011;70828;51.158;4.998;2023-07-13T10:37:49;3.10;;;1.30;;
81374;SDS011;70828;51.158;4.998;2023-07-13T10:40:18;5.75;;;1.77;;
81374;SDS011;70828;51.158;4.998;2023-07-13T10:42:49;10.48;;;2.00;;
81374;SDS011;70828;51.158;4.998;2023-07-13T10:45:17;5.05;;;1.30;;
81374;SDS011;70828;51.158;4.998;2023-07-13T10:47:46;4.10;;;1.40;;
81374;SDS011;70828;51.158;4.998;2023-07-13T10:50:15;5.68;;;1.40;;
81374;SDS011;70828;51.158;4.998;2023-07-13T10:52:45;4.53;;;1.73;;
81374;SDS011;70828;51.158;4.998;2023-07-13T10:55:36;4.53;;;1.80;;
81374;SDS011;70828;51.158;4.998;2023-07-13T10:58:11;4.78;;;1.90;;
81374;SDS011;70828;51.158;4.998;2023-07-13T11:00:44;5.25;;;2.08;;
81374;SDS011;70828;51.158;4.998;2023-07-13T11:03:14;6.63;;;1.90;;
81374;SDS011;70828;51.158;4.998;2023-07-13T11:05:42;2.90;;;1.33;;
81374;SDS011;70828;51.158;4.998;2023-07-13T11:08:13;6.13;;;1.85;;
81374;SDS011;70828;51.158;4.998;2023-07-13T11:10:48;4.03;;;1.40;;
81374;SDS011;70828;51.158;4.998;2023-07-13T11:16:36;3.60;;;1.33;;
81374;SDS011;70828;51.158;4.998;2023-07-13T11:22:14;3.17;;;1.40;;
81374;SDS011;70828;51.158;4.998;2023-07-13T11:24:50;3.85;;;1.40;;
81374;SDS011;70828;51.158;4.998;2023-07-13T11:27:25;3.30;;;1.02;;
81374;SDS011;70828;51.158;4.998;2023-07-13T11:32:51;5.80;;;1.75;;
81374;SDS011;70828;51.158;4.998;2023-07-13T11:35:28;8.02;;;2.05;;
81374;SDS011;70828;51.158;4.998;2023-07-13T11:37:55;4.10;;;1.42;;
81374;SDS011;70828;51.158;4.998;2023-07-13T11:40:22;6.05;;;1.45;;
81374;SDS011;70828;51.158;4.998;2023-07-13T11:42:53;5.55;;;1.52;;
81374;SDS011;70828;51.158;4.998;2023-07-13T11:45:25;8.57;;;1.30;;
81374;SDS011;70828;51.158;4.998;2023-07-13T11:47:53;5.40;;;1.83;;
81374;SDS011;70828;51.158;4.998;2023-07-13T11:50:22;5.40;;;1.83;;
81374;SDS011;70828;51.158;4.998;2023-07-13T11:52:50;5.63;;;1.60;;
81374;SDS011;70828;51.158;4.998;2023-07-13T11:55:19;5.90;;;1.30;;
81374;SDS011;70828;51.158;4.998;2023-07-13T11:57:48;5.03;;;1.30;;
81374;SDS011;70828;51.158;4.998;2023-07-13T12:00:20;5.57;;;1.67;;
81374;SDS011;70828;51.158;4.998;2023-07-13T12:02:49;5.07;;;1.83;;
81374;SDS011;70828;51.158;4.998;2023-07-13T12:05:18;5.63;;;1.90;;
81374;SDS011;70828;51.158;4.998;2023-07-13T12:07:45;8.07;;;1.45;;
81374;SDS011;70828;51.158;4.998;2023-07-13T12:10:17;6.32;;;2.00;;
81374;SDS011;70828;51.158;4.998;2023-07-13T12:12:48;5.72;;;1.10;;
81374;SDS011;70828;51.158;4.998;2023-07-13T12:15:18;3.42;;;1.33;;
81374;SDS011;70828;51.158;4.998;2023-07-13T12:17:45;7.40;;;1.63;;
81374;SDS011;70828;51.158;4.998;2023-07-13T12:20:18;5.55;;;1.38;;
81374;SDS011;70828;51.158;4.998;2023-07-13T12:22:49;6.20;;;2.13;;
81374;SDS011;70828;51.158;4.998;2023-07-13T12:25:17;3.08;;;1.25;;
81374;SDS011;70828;51.158;4.998;2023-07-13T12:27:46;2.15;;;1.50;;
81374;SDS011;70828;51.158;4.998;2023-07-13T12:30:26;6.28;;;1.60;;
81374;SDS011;70828;51.158;4.998;2023-07-13T12:32:56;12.05;;;1.85;;
81374;SDS011;70828;51.158;4.998;2023-07-13T12:35:23;5.30;;;1.45;;
81374;SDS011;70828;51.158;4.998;2023-07-13T12:37:54;5.00;;;1.23;;
81374;SDS011;70828;51.158;4.998;2023-07-13T12:40:25;3.78;;;1.60;;
81374;SDS011;70828;51.158;4.998;2023-07-13T12:42:53;8.02;;;1.52;;
81374;SDS011;70828;51.158;4.998;2023-07-13T12:45:22;3.70;;;1.33;;
81374;SDS011;70828;51.158;4.998;2023-07-13T12:47:53;5.72;;;1.52;;
81374;SDS011;70828;51.158;4.998;2023-07-13T12:50:28;3.15;;;1.60;;
81374;SDS011;70828;51.158;4.998;2023-07-13T12:52:57;6.32;;;1.75;;
81374;SDS011;70828;51.158;4.998;2023-07-13T12:55:28;4.65;;;1.85;;
81374;SDS011;70828;51.158;4.998;2023-07-13T12:57:57;5.25;;;1.90;;
81374;SDS011;70828;51.158;4.998;2023-07-13T13:00:26;5.45;;;2.55;;
81374;SDS011;70828;51.158;4.998;2023-07-13T13:02:58;6.53;;;2.75;;
81374;SDS011;70828;51.158;4.998;2023-07-13T13:05:28;4.40;;;2.38;;
81374;SDS011;70828;51.158;4.998;2023-07-13T13:07:55;7.18;;;2.20;;
81374;SDS011;70828;51.158;4.998;2023-07-13T13:10:22;7.95;;;2.63;;
81374;SDS011;70828;51.158;4.998;2023-07-13T13:12:49;7.45;;;2.20;;
81374;SDS011;70828;51.158;4.998;2023-07-13T13:15:17;4.43;;;2.40;;
81374;SDS011;70828;51.158;4.998;2023-07-13T13:17:44;4.85;;;2.10;;
81374;SDS011;70828;51.158;4.998;2023-07-13T13:20:15;3.15;;;2.05;;
81374;SDS011;70828;51.158;4.998;2023-07-13T13:22:44;6.13;;;2.17;;
81374;SDS011;70828;51.158;4.998;2023-07-13T13:25:11;3.35;;;1.67;;
81374;SDS011;70828;51.158;4.998;2023-07-13T13:27:37;3.38;;;1.50;;
81374;SDS011;70828;51.158;4.998;2023-07-13T13:30:09;5.90;;;2.15;;
81374;SDS011;70828;51.158;4.998;2023-07-13T13:32:37;3.92;;;1.52;;
81374;SDS011;70828;51.158;4.998;2023-07-13T13:35:04;5.18;;;1.42;;
81374;SDS011;70828;51.158;4.998;2023-07-13T13:37:33;3.95;;;1.40;;
81374;SDS011;70828;51.158;4.998;2023-07-13T13:40:00;2.70;;;1.90;;
81374;SDS011;70828;51.158;4.998;2023-07-13T13:42:27;3.03;;;1.60;;
81374;SDS011;70828;51.158;4.998;2023-07-13T13:44:54;4.68;;;1.45;;
81374;SDS011;70828;51.158;4.998;2023-07-13T13:47:29;3.85;;;1.45;;
81374;SDS011;70828;51.158;4.998;2023-07-13T13:49:57;3.97;;;1.60;;
81374;SDS011;70828;51.158;4.998;2023-07-13T13:52:25;5.60;;;1.48;;
81374;SDS011;70828;51.158;4.998;2023-07-13T13:54:53;3.30;;;1.40;;
81374;SDS011;70828;51.158;4.998;2023-07-13T13:57:21;2.53;;;1.33;;
81374;SDS011;70828;51.158;4.998;2023-07-13T13:59:49;3.17;;;1.40;;
81374;SDS011;70828;51.158;4.998;2023-07-13T14:02:20;3.17;;;1.08;;
81374;SDS011;70828;51.158;4.998;2023-07-13T14:04:50;3.33;;;1.60;;
81374;SDS011;70828;51.158;4.998;2023-07-13T14:07:20;4.47;;;1.20;;
81374;SDS011;70828;51.158;4.998;2023-07-13T14:09:46;2.50;;;1.40;;
81374;SDS011;70828;51.158;4.998;2023-07-13T14:12:14;2.78;;;1.30;;
81374;SDS011;70828;51.158;4.998;2023-07-13T14:14:41;2.50;;;1.35;;
81374;SDS011;70828;51.158;4.998;2023-07-13T14:17:11;3.75;;;1.38;;
81374;SDS011;70828;51.158;4.998;2023-07-13T14:19:46;2.83;;;1.40;;
81374;SDS011;70828;51.158;4.998;2023-07-13T14:22:15;4.03;;;1.25;;
81374;SDS011;70828;51.158;4.998;2023-07-13T14:24:42;3.53;;;1.63;;
81374;SDS011;70828;51.158;4.998;2023-07-13T14:27:09;4.30;;;1.63;;
81374;SDS011;70828;51.158;4.998;2023-07-13T14:29:37;3.63;;;1.40;;
81374;SDS011;70828;51.158;4.998;2023-07-13T14:32:04;2.50;;;1.13;;
81374;SDS011;70828;51.158;4.998;2023-07-13T14:34:31;3.70;;;1.42;;
81374;SDS011;70828;51.158;4.998;2023-07-13T14:36:58;4.28;;;1.73;;
81374;SDS011;70828;51.158;4.998;2023-07-13T14:39:24;3.22;;;1.30;;
81374;SDS011;70828;51.158;4.998;2023-07-13T14:41:52;3.75;;;1.40;;
81374;SDS011;70828;51.158;4.998;2023-07-13T14:44:20;2.63;;;0.95;;
81374;SDS011;70828;51.158;4.998;2023-07-13T14:46:50;5.15;;;1.40;;
81374;SDS011;70828;51.158;4.998;2023-07-13T14:49:21;4.07;;;1.35;;
81374;SDS011;70828;51.158;4.998;2023-07-13T14:51:50;3.03;;;1.00;;
81374;SDS011;70828;51.158;4.998;2023-07-13T14:54:17;6.50;;;1.27;;
81374;SDS011;70828;51.158;4.998;2023-07-13T14:56:43;3.55;;;1.35;;
81374;SDS011;70828;51.158;4.998;2023-07-13T14:59:10;4.13;;;1.20;;
81374;SDS011;70828;51.158;4.998;2023-07-13T15:01:37;3.30;;;1.10;;
81374;SDS011;70828;51.158;4.998;2023-07-13T15:04:06;6.20;;;1.35;;